Time;durP1;ratioP1;P1;durP2;ratioP2;P2;SDS_P1;SDS_P2;PMS_P1;PMS_P2;Temp;Humidity;BMP_temperature;BMP_pressure;BME280_temperature;BME280_humidity;BME280_pressure;Samples;Min_cycle;Max_cycle;Signal;HPM_P1;HPM_P2
2022/10/16 00:01:41;;;;;;;7.22;6.63;;;14.50;99.90;;;;;;5016106;28;20184;-79
2022/10/16 00:04:08;;;;;;;6.85;6.28;;;14.50;99.90;;;;;;5018408;28;20288;-79
2022/10/16 00:06:34;;;;;;;7.75;6.63;;;14.50;99.90;;;;;;5018947;28;20618;-80
2022/10/16 00:09:02;;;;;;;8.15;7.47;;;14.50;99.90;;;;;;5017809;28;20232;-80
2022/10/16 00:11:33;;;;;;;6.75;6.22;;;14.50;99.90;;;;;;5021684;28;20240;-79
2022/10/16 00:14:00;;;;;;;7.20;6.60;;;14.40;99.90;;;;;;5011886;28;20197;-79
2022/10/16 00:16:27;;;;;;;9.15;7.07;;;14.30;99.90;;;;;;5022091;28;20173;-78
2022/10/16 00:19:18;;;;;;;9.38;6.15;;;14.40;99.90;;;;;;5027135;28;20196;-79
2022/10/16 00:22:13;;;;;;;7.80;7.00;;;14.50;99.90;;;;;;5023005;28;20240;-82
2022/10/16 00:24:44;;;;;;;11.10;6.72;;;14.50;99.90;;;;;;5026018;28;20213;-80
2022/10/16 00:27:10;;;;;;;8.25;6.95;;;14.50;99.90;;;;;;5028024;28;20640;-80
2022/10/16 00:29:35;;;;;;;8.05;7.10;;;14.50;99.90;;;;;;5028133;28;20217;-79
2022/10/16 00:32:01;;;;;;;11.82;7.03;;;14.50;99.90;;;;;;5029041;28;20181;-80
2022/10/16 00:34:27;;;;;;;7.82;6.82;;;14.40;99.90;;;;;;5031411;28;20197;-80
2022/10/16 00:36:55;;;;;;;11.45;7.10;;;14.40;99.90;;;;;;5032087;28;20180;-80
2022/10/16 00:39:22;;;;;;;6.65;6.13;;;14.40;99.90;;;;;;5028016;28;20181;-79
2022/10/16 00:41:48;;;;;;;7.05;6.32;;;14.40;99.90;;;;;;5027759;28;20169;-81
2022/10/16 00:44:43;;;;;;;6.55;5.97;;;14.50;99.90;;;;;;5028115;28;20231;-80
2022/10/16 00:47:37;;;;;;;6.32;5.78;;;14.50;99.90;;;;;;5030189;28;20192;-80
2022/10/16 00:50:12;;;;;;;6.43;5.93;;;14.50;99.90;;;;;;5024402;28;20216;-80
2022/10/16 00:52:41;;;;;;;9.32;6.65;;;14.50;99.90;;;;;;5019419;28;20263;-79
2022/10/16 00:55:09;;;;;;;7.95;6.30;;;14.40;99.90;;;;;;5019892;28;20201;-79
2022/10/16 00:57:34;;;;;;;9.15;6.88;;;14.50;99.90;;;;;;5016603;28;20197;-79
2022/10/16 01:00:01;;;;;;;6.72;6.13;;;14.50;99.90;;;;;;5020177;28;20658;-78
2022/10/16 01:02:27;;;;;;;8.15;7.22;;;14.40;99.90;;;;;;5022088;28;20189;-78
2022/10/16 01:04:53;;;;;;;7.80;6.13;;;14.30;99.90;;;;;;5014241;28;20284;-77
2022/10/16 01:07:31;;;;;;;7.60;6.60;;;14.40;99.90;;;;;;5014623;28;20678;-77
2022/10/16 01:10:07;;;;;;;7.03;6.32;;;14.40;99.90;;;;;;5015576;28;20236;-78
2022/10/16 01:12:48;;;;;;;7.82;7.03;;;14.30;99.90;;;;;;5015372;28;20188;-78
2022/10/16 01:15:37;;;;;;;8.35;6.90;;;14.30;99.90;;;;;;5015160;28;20204;-78
2022/10/16 01:18:18;;;;;;;6.97;6.38;;;14.20;99.90;;;;;;5015798;28;20249;-78
2022/10/16 01:21:02;;;;;;;7.25;5.60;;;14.20;99.90;;;;;;5014454;28;20277;-79
2022/10/16 01:24:03;;;;;;;9.43;5.80;;;14.20;99.90;;;;;;5017503;28;20213;-77
2022/10/16 01:26:38;;;;;;;5.68;5.18;;;14.30;99.90;;;;;;5010150;28;20205;-76
2022/10/16 01:29:07;;;;;;;6.85;6.13;;;14.30;99.90;;;;;;5013840;28;20264;-77
2022/10/16 01:31:38;;;;;;;7.32;6.38;;;14.30;99.90;;;;;;5017705;28;20208;-77
2022/10/16 01:34:16;;;;;;;7.20;6.53;;;14.30;99.90;;;;;;5013153;28;20193;-78
2022/10/16 01:36:53;;;;;;;6.38;5.78;;;14.30;99.90;;;;;;5017704;28;20181;-78
2022/10/16 01:39:22;;;;;;;8.93;6.25;;;14.30;99.90;;;;;;5014774;28;20256;-78
2022/10/16 01:42:20;;;;;;;8.35;6.05;;;14.30;99.90;;;;;;5014777;28;20177;-77
2022/10/16 01:44:48;;;;;;;6.80;6.18;;;14.20;99.90;;;;;;5008559;28;20215;-77
2022/10/16 01:47:15;;;;;;;5.97;5.50;;;14.20;99.90;;;;;;5017533;28;20684;-78
2022/10/16 01:49:43;;;;;;;6.53;5.78;;;14.20;99.90;;;;;;5014798;28;20208;-78
2022/10/16 01:52:19;;;;;;;8.38;5.45;;;14.20;99.90;;;;;;5019299;28;20177;-78
2022/10/16 01:54:48;;;;;;;7.43;6.07;;;14.20;99.90;;;;;;5018143;28;20192;-77
2022/10/16 01:57:15;;;;;;;6.53;5.75;;;14.20;99.90;;;;;;5016912;28;20211;-78
2022/10/16 01:59:45;;;;;;;5.85;5.38;;;14.20;99.90;;;;;;5013620;28;20177;-77
2022/10/16 02:02:12;;;;;;;6.55;5.97;;;14.20;99.90;;;;;;5015148;28;20173;-77
2022/10/16 02:04:43;;;;;;;6.43;5.65;;;14.10;99.90;;;;;;5018012;28;20771;-77
2022/10/16 02:07:18;;;;;;;9.27;5.80;;;14.10;99.90;;;;;;5023175;28;20217;-79
2022/10/16 02:09:44;;;;;;;7.45;5.95;;;14.10;99.90;;;;;;5009921;28;20227;-78
2022/10/16 02:12:27;;;;;;;6.15;5.75;;;14.10;99.90;;;;;;5017484;28;20195;-78
2022/10/16 02:14:53;;;;;;;5.82;5.32;;;14.10;99.90;;;;;;5021035;28;20208;-78
2022/10/16 02:17:21;;;;;;;5.72;5.22;;;14.20;99.90;;;;;;5013021;28;20186;-79
2022/10/16 02:19:49;;;;;;;6.80;6.03;;;14.30;99.90;;;;;;5017591;28;20271;-78
2022/10/16 02:22:26;;;;;;;7.03;4.78;;;14.20;99.90;;;;;;5018255;28;20189;-79
2022/10/16 02:25:22;;;;;;;8.00;5.85;;;14.30;99.90;;;;;;5014357;28;20262;-78
2022/10/16 02:28:17;;;;;;;5.50;5.00;;;14.20;99.90;;;;;;5013005;28;20587;-79
2022/10/16 02:30:59;;;;;;;12.32;5.18;;;14.20;99.90;;;;;;5017159;28;20205;-78
2022/10/16 02:33:27;;;;;;;5.70;5.18;;;14.20;99.90;;;;;;5016013;28;20189;-78
2022/10/16 02:35:54;;;;;;;7.88;5.43;;;14.20;99.90;;;;;;5016946;28;20252;-78
2022/10/16 02:38:40;;;;;;;6.20;5.60;;;14.20;99.90;;;;;;5017708;28;20181;-78
2022/10/16 02:41:06;;;;;;;5.03;4.70;;;14.10;99.90;;;;;;5014471;28;20547;-78
2022/10/16 02:43:33;;;;;;;6.32;5.72;;;14.10;99.90;;;;;;5016742;28;20303;-78
2022/10/16 02:45:59;;;;;;;6.00;5.28;;;14.20;99.90;;;;;;5017748;28;20678;-77
2022/10/16 02:48:25;;;;;;;14.68;6.03;;;14.10;99.90;;;;;;5019495;28;20193;-77
2022/10/16 02:50:50;;;;;;;7.32;5.78;;;14.10;99.90;;;;;;5017523;28;20236;-77
2022/10/16 02:53:16;;;;;;;5.80;5.13;;;14.20;99.90;;;;;;5018169;28;20177;-78
2022/10/16 02:55:45;;;;;;;5.53;5.13;;;14.10;99.90;;;;;;5019652;28;20180;-78
2022/10/16 02:58:11;;;;;;;6.20;5.68;;;14.10;99.90;;;;;;5020617;28;20190;-78
2022/10/16 03:00:36;;;;;;;7.47;6.43;;;14.10;99.90;;;;;;5012795;28;20195;-78
2022/10/16 03:03:02;;;;;;;6.30;5.68;;;14.00;99.90;;;;;;5013711;28;20196;-78
2022/10/16 03:05:28;;;;;;;6.18;5.60;;;14.10;99.90;;;;;;5008535;28;20621;-79
2022/10/16 03:07:53;;;;;;;7.50;6.32;;;14.10;99.90;;;;;;5018676;28;20185;-79
2022/10/16 03:10:19;;;;;;;9.63;6.47;;;14.10;99.90;;;;;;5011236;28;20286;-79
2022/10/16 03:12:44;;;;;;;6.60;6.00;;;14.20;99.90;;;;;;5016159;28;20185;-79
2022/10/16 03:15:13;;;;;;;10.00;6.53;;;14.10;99.90;;;;;;5015730;28;20220;-79
2022/10/16 03:17:39;;;;;;;10.32;6.28;;;14.20;99.90;;;;;;5016169;28;20185;-79
2022/10/16 03:20:42;;;;;;;7.90;6.07;;;14.10;99.90;;;;;;5018940;28;20180;-79
2022/10/16 03:23:56;;;;;;;8.38;6.70;;;14.10;99.90;;;;;;5022309;28;20197;-80
2022/10/16 03:29:58;;;;;;;8.00;6.32;;;14.10;99.90;;;;;;5027361;28;20212;-80
2022/10/16 03:32:34;;;;;;;6.10;5.50;;;14.10;99.90;;;;;;5026030;28;20187;-80
2022/10/16 03:35:08;;;;;;;7.45;5.35;;;14.20;99.90;;;;;;5019922;28;20200;-79
2022/10/16 03:37:34;;;;;;;5.43;4.85;;;14.20;99.90;;;;;;5029979;28;20257;-80
2022/10/16 03:40:28;;;;;;;6.55;5.70;;;14.20;99.90;;;;;;5026038;28;20185;-81
2022/10/16 03:43:03;;;;;;;6.38;5.88;;;14.30;99.90;;;;;;5023979;28;20302;-82
2022/10/16 03:46:07;;;;;;;5.45;5.05;;;14.20;99.90;;;;;;5030488;28;20243;-83
2022/10/16 03:48:36;;;;;;;5.90;5.40;;;14.30;99.90;;;;;;5023888;28;20189;-80
2022/10/16 03:51:02;;;;;;;6.15;5.65;;;14.30;99.90;;;;;;5028038;28;20272;-79
2022/10/16 03:53:36;;;;;;;8.38;5.97;;;14.20;99.90;;;;;;5021694;28;20181;-80
2022/10/16 03:56:02;;;;;;;5.65;5.15;;;14.10;99.90;;;;;;5028440;28;20173;-80
2022/10/16 03:58:27;;;;;;;10.18;5.85;;;14.10;99.90;;;;;;5029289;28;20665;-78
2022/10/16 04:00:53;;;;;;;6.43;5.55;;;14.00;99.90;;;;;;5011474;28;20200;-78
2022/10/16 04:03:19;;;;;;;5.97;5.50;;;14.00;99.90;;;;;;5006088;28;20636;-77
2022/10/16 04:05:45;;;;;;;9.13;5.32;;;13.90;99.90;;;;;;5013148;28;20192;-78
2022/10/16 04:08:10;;;;;;;7.88;5.55;;;13.90;99.90;;;;;;5013647;28;20180;-78
2022/10/16 04:10:36;;;;;;;6.72;5.13;;;13.80;99.90;;;;;;5008992;28;20578;-78
2022/10/16 04:13:02;;;;;;;4.90;4.50;;;13.80;99.90;;;;;;5012929;28;20177;-77
2022/10/16 04:15:53;;;;;;;6.50;5.90;;;13.80;99.90;;;;;;5016796;28;20236;-79
2022/10/16 04:18:39;;;;;;;6.78;5.03;;;13.80;99.90;;;;;;5021426;28;20193;-78
2022/10/16 04:21:06;;;;;;;5.95;5.45;;;13.80;99.90;;;;;;5016833;28;20178;-78
2022/10/16 04:23:32;;;;;;;5.75;5.30;;;13.80;99.90;;;;;;5015251;28;21353;-79
2022/10/16 04:26:04;;;;;;;5.78;5.32;;;13.80;99.90;;;;;;5010052;28;20281;-78
2022/10/16 04:28:30;;;;;;;5.32;4.82;;;13.80;99.90;;;;;;5024738;28;20192;-79
2022/10/16 04:30:55;;;;;;;6.30;5.57;;;13.90;99.90;;;;;;5012236;28;20205;-78
2022/10/16 04:33:21;;;;;;;8.73;5.80;;;13.90;99.90;;;;;;5014265;28;20181;-79
2022/10/16 04:35:47;;;;;;;10.75;5.75;;;13.90;99.90;;;;;;5020542;28;20541;-78
2022/10/16 04:38:13;;;;;;;5.70;5.30;;;14.00;99.90;;;;;;5022942;28;20177;-79
2022/10/16 04:40:38;;;;;;;7.07;5.07;;;14.00;99.90;;;;;;5014700;28;20836;-78
2022/10/16 04:43:05;;;;;;;5.28;4.80;;;14.00;99.90;;;;;;5012049;28;20254;-83
2022/10/16 04:45:31;;;;;;;5.88;5.32;;;14.10;99.90;;;;;;5014181;28;20331;-77
2022/10/16 04:48:00;;;;;;;6.63;5.35;;;14.10;99.90;;;;;;5020384;28;20208;-78
2022/10/16 04:50:26;;;;;;;6.28;5.68;;;14.00;99.90;;;;;;5035995;28;20239;-78
2022/10/16 04:52:52;;;;;;;7.63;5.45;;;14.10;99.90;;;;;;5012630;28;20181;-78
2022/10/16 04:55:17;;;;;;;6.57;5.43;;;14.20;99.90;;;;;;5012450;28;20208;-77
2022/10/16 04:57:43;;;;;;;6.47;5.25;;;14.10;99.90;;;;;;5008676;28;20232;-77
2022/10/16 05:00:09;;;;;;;6.22;5.68;;;14.10;99.90;;;;;;5010750;28;20192;-77
2022/10/16 05:02:35;;;;;;;6.28;5.68;;;14.10;99.90;;;;;;5010243;28;20188;-78
2022/10/16 05:05:00;;;;;;;6.57;5.47;;;14.00;99.90;;;;;;5013333;28;20698;-78
2022/10/16 05:07:26;;;;;;;6.38;5.88;;;14.00;99.90;;;;;;5012207;28;20180;-77
2022/10/16 05:09:52;;;;;;;6.55;5.93;;;13.90;99.90;;;;;;5018242;28;20197;-80
2022/10/16 05:12:17;;;;;;;7.15;6.28;;;13.80;99.90;;;;;;5025643;28;20185;-80
2022/10/16 05:14:43;;;;;;;6.53;6.00;;;13.80;99.90;;;;;;5021784;28;20209;-80
2022/10/16 05:17:08;;;;;;;8.60;6.47;;;13.80;99.90;;;;;;5024407;28;20235;-80
2022/10/16 05:19:34;;;;;;;8.10;6.15;;;13.80;99.90;;;;;;5022619;28;20196;-80
2022/10/16 05:22:00;;;;;;;9.98;6.90;;;13.80;99.90;;;;;;5028139;28;20208;-80
2022/10/16 05:24:26;;;;;;;6.47;5.97;;;13.80;99.90;;;;;;5026434;28;20212;-80
2022/10/16 05:26:52;;;;;;;6.20;5.75;;;13.70;99.90;;;;;;5024848;28;20208;-81
2022/10/16 05:29:17;;;;;;;6.28;5.75;;;13.70;99.90;;;;;;5019816;28;20202;-80
2022/10/16 05:31:43;;;;;;;6.93;6.28;;;13.80;99.90;;;;;;5026976;28;20208;-81
2022/10/16 05:34:08;;;;;;;6.97;5.53;;;13.80;99.90;;;;;;5025855;28;20212;-81
2022/10/16 05:36:34;;;;;;;6.18;5.57;;;13.90;99.90;;;;;;5025232;28;20202;-80
2022/10/16 05:39:00;;;;;;;5.60;5.30;;;13.90;99.90;;;;;;5026292;28;20186;-81
2022/10/16 05:41:26;;;;;;;5.95;5.35;;;13.90;99.90;;;;;;5023502;28;20200;-81
2022/10/16 05:43:52;;;;;;;6.05;5.53;;;13.90;99.90;;;;;;5021269;28;20605;-80
2022/10/16 05:46:18;;;;;;;6.40;4.90;;;13.90;99.90;;;;;;5027694;28;20186;-80
2022/10/16 05:48:44;;;;;;;8.65;5.68;;;14.00;99.90;;;;;;5022247;28;20181;-82
2022/10/16 05:51:12;;;;;;;6.43;5.82;;;14.00;99.90;;;;;;5020838;28;20331;-82
2022/10/16 05:53:39;;;;;;;6.55;5.57;;;13.90;99.90;;;;;;5019730;28;20200;-81
2022/10/16 05:56:06;;;;;;;6.72;6.07;;;13.80;99.90;;;;;;5019029;28;20182;-82
2022/10/16 05:58:35;;;;;;;7.13;5.68;;;13.80;99.90;;;;;;5019606;28;20193;-83
2022/10/16 06:01:07;;;;;;;5.28;4.80;;;13.80;99.90;;;;;;5019541;28;20188;-83
2022/10/16 06:03:33;;;;;;;5.93;5.40;;;13.90;99.90;;;;;;5021139;28;20344;-83
2022/10/16 06:06:06;;;;;;;7.35;6.18;;;13.90;99.90;;;;;;5021817;28;20189;-85
2022/10/16 06:08:32;;;;;;;7.15;6.47;;;13.90;99.90;;;;;;5018379;28;20586;-82
2022/10/16 06:11:05;;;;;;;6.63;6.05;;;13.90;99.90;;;;;;5024687;28;20291;-84
2022/10/16 06:13:31;;;;;;;6.28;5.68;;;13.90;99.90;;;;;;5023186;28;20197;-83
2022/10/16 06:15:58;;;;;;;8.18;5.45;;;13.90;99.90;;;;;;5021411;28;20197;-83
2022/10/16 06:18:25;;;;;;;7.22;6.25;;;13.90;99.90;;;;;;5027404;28;20583;-83
2022/10/16 06:20:50;;;;;;;6.22;5.72;;;14.00;99.90;;;;;;5026626;28;20186;-82
2022/10/16 06:23:16;;;;;;;5.90;5.50;;;14.10;99.90;;;;;;5027706;28;20607;-83
2022/10/16 06:25:41;;;;;;;7.90;6.18;;;14.10;99.90;;;;;;5020036;28;20197;-83
2022/10/16 06:28:07;;;;;;;7.32;5.53;;;14.20;99.90;;;;;;5024531;28;20559;-83
2022/10/16 06:30:33;;;;;;;9.43;5.50;;;14.20;99.90;;;;;;5020809;28;20612;-82
2022/10/16 06:32:58;;;;;;;6.00;5.40;;;14.20;99.90;;;;;;5025527;28;20173;-83
2022/10/16 06:35:24;;;;;;;5.65;5.15;;;14.20;99.90;;;;;;5020319;28;20205;-83
2022/10/16 06:37:49;;;;;;;5.43;4.95;;;14.20;99.90;;;;;;5016667;28;20189;-83
2022/10/16 06:40:15;;;;;;;7.85;5.30;;;14.20;99.90;;;;;;5022965;28;20189;-83
2022/10/16 06:42:41;;;;;;;7.22;4.63;;;14.30;99.90;;;;;;5021962;28;20209;-83
2022/10/16 06:45:07;;;;;;;5.68;5.18;;;14.40;99.90;;;;;;5024294;28;20209;-83
2022/10/16 06:47:33;;;;;;;8.40;4.93;;;14.50;99.90;;;;;;5024853;28;20200;-83
2022/10/16 06:49:58;;;;;;;6.57;4.97;;;14.50;99.90;;;;;;5021249;28;20226;-83
2022/10/16 06:52:24;;;;;;;4.82;4.53;;;14.50;99.90;;;;;;5018968;28;20187;-83
2022/10/16 06:54:50;;;;;;;5.10;4.60;;;14.50;99.90;;;;;;5025187;28;20790;-83
2022/10/16 06:57:15;;;;;;;5.40;4.97;;;14.60;99.90;;;;;;5028010;28;20244;-83
2022/10/16 06:59:41;;;;;;;5.68;5.10;;;14.70;99.90;;;;;;5025865;28;20683;-83
2022/10/16 07:02:08;;;;;;;6.18;5.20;;;14.70;99.90;;;;;;5024892;28;20189;-82
2022/10/16 07:04:35;;;;;;;6.03;5.03;;;14.70;99.90;;;;;;5021890;28;20238;-83
2022/10/16 07:07:01;;;;;;;5.05;4.65;;;14.80;99.90;;;;;;5024456;28;20563;-82
2022/10/16 07:09:26;;;;;;;4.97;4.50;;;14.80;99.90;;;;;;5020138;28;20224;-82
2022/10/16 07:11:53;;;;;;;5.57;5.10;;;14.90;99.90;;;;;;5022949;28;20188;-82
2022/10/16 07:14:20;;;;;;;5.43;4.93;;;14.90;99.90;;;;;;5021097;28;20193;-83
2022/10/16 07:16:46;;;;;;;4.75;4.20;;;15.00;99.90;;;;;;5016473;28;20674;-82
2022/10/16 07:19:14;;;;;;;5.10;4.70;;;15.00;99.90;;;;;;5023047;28;20189;-82
2022/10/16 07:21:40;;;;;;;10.32;4.65;;;15.30;99.90;;;;;;5021368;28;20181;-81
2022/10/16 07:24:10;;;;;;;4.70;4.30;;;15.50;99.90;;;;;;5015017;28;20201;-83
2022/10/16 07:26:38;;;;;;;5.05;4.60;;;15.60;99.90;;;;;;5011681;28;20188;-82
2022/10/16 07:29:06;;;;;;;4.22;3.80;;;15.80;99.90;;;;;;5014367;28;20205;-82
2022/10/16 07:31:31;;;;;;;5.45;3.75;;;15.80;99.90;;;;;;5017195;28;20189;-82
2022/10/16 07:33:59;;;;;;;3.95;3.65;;;15.80;99.90;;;;;;5016421;28;20212;-81
2022/10/16 07:36:25;;;;;;;4.65;3.83;;;15.80;99.90;;;;;;5017609;28;20280;-81
2022/10/16 07:38:51;;;;;;;4.30;3.90;;;15.90;99.90;;;;;;5013672;28;20260;-81
2022/10/16 07:41:18;;;;;;;4.95;3.55;;;16.00;99.90;;;;;;5018589;28;20177;-83
2022/10/16 07:43:52;;;;;;;4.35;3.95;;;16.10;99.90;;;;;;5018310;28;20292;-81
2022/10/16 07:46:23;;;;;;;3.78;3.22;;;16.40;99.90;;;;;;5114265;27;20546;-79
2022/10/16 07:48:49;;;;;;;3.92;3.63;;;16.50;99.90;;;;;;5095570;28;20197;-79
2022/10/16 07:51:20;;;;;;;4.07;3.78;;;16.60;99.90;;;;;;5100674;28;20218;-81
2022/10/16 07:53:46;;;;;;;4.25;3.38;;;16.90;99.90;;;;;;5107613;28;20199;-81
2022/10/16 07:56:13;;;;;;;3.40;3.00;;;17.20;99.90;;;;;;5129574;28;20239;-81
2022/10/16 07:58:38;;;;;;;3.63;3.17;;;17.50;99.90;;;;;;5115114;28;20272;-80
2022/10/16 08:01:09;;;;;;;4.13;3.10;;;17.80;99.90;;;;;;5107961;28;20218;-81
2022/10/16 08:03:35;;;;;;;2.85;2.65;;;18.10;99.90;;;;;;5113170;28;20202;-79
2022/10/16 08:06:01;;;;;;;3.13;2.92;;;18.00;99.90;;;;;;5112214;27;20612;-78
2022/10/16 08:08:27;;;;;;;3.20;3.00;;;18.00;99.90;;;;;;5103504;28;20178;-78
2022/10/16 08:10:53;;;;;;;2.70;2.60;;;18.00;99.90;;;;;;5103400;28;20199;-78
2022/10/16 08:13:19;;;;;;;3.20;2.50;;;17.90;99.90;;;;;;5103505;27;20178;-78
2022/10/16 08:15:45;;;;;;;4.85;2.50;;;17.90;99.90;;;;;;5103865;28;20253;-77
2022/10/16 08:18:13;;;;;;;6.40;2.80;;;17.80;99.90;;;;;;5106372;28;20182;-78
2022/10/16 08:20:39;;;;;;;4.07;2.92;;;17.80;99.90;;;;;;5107598;28;20656;-78
2022/10/16 08:23:05;;;;;;;2.42;2.33;;;17.90;99.90;;;;;;5099284;28;20182;-78
2022/10/16 08:25:31;;;;;;;4.47;2.55;;;18.40;99.90;;;;;;5104329;28;20579;-78
2022/10/16 08:27:56;;;;;;;2.88;2.28;;;19.10;99.90;;;;;;5099808;28;20193;-78
2022/10/16 08:30:24;;;;;;;2.40;2.30;;;19.50;99.90;;;;;;5104048;28;20182;-77
2022/10/16 08:32:49;;;;;;;2.90;2.70;;;19.80;99.90;;;;;;5100013;28;20185;-78
2022/10/16 08:35:15;;;;;;;2.45;2.35;;;20.00;99.90;;;;;;5103494;28;20307;-77
2022/10/16 08:37:41;;;;;;;2.80;2.60;;;20.10;99.90;;;;;;5101955;28;20237;-78
2022/10/16 08:40:23;;;;;;;3.00;2.38;;;20.30;99.90;;;;;;5105843;28;20311;-77
2022/10/16 08:43:09;;;;;;;3.95;2.53;;;20.70;99.90;;;;;;5101583;28;20174;-77
2022/10/16 08:45:47;;;;;;;2.67;2.47;;;20.80;99.90;;;;;;5096086;28;20225;-78
2022/10/16 08:48:18;;;;;;;2.70;2.10;;;20.70;99.90;;;;;;5104719;28;20181;-77
2022/10/16 08:50:45;;;;;;;3.33;2.10;;;20.40;99.90;;;;;;5100981;28;20178;-77
2022/10/16 08:53:33;;;;;;;2.83;2.38;;;20.30;99.90;;;;;;5100325;28;20178;-77
2022/10/16 08:55:59;;;;;;;2.38;2.20;;;20.20;99.90;;;;;;5097327;28;20197;-77
2022/10/16 08:58:30;;;;;;;2.60;2.40;;;20.50;99.90;;;;;;5087948;28;20179;-77
2022/10/16 09:00:59;;;;;;;2.80;2.60;;;20.70;99.90;;;;;;5092629;28;20181;-78
2022/10/16 09:03:40;;;;;;;5.05;2.50;;;21.00;99.90;;;;;;5085054;28;20190;-78
2022/10/16 09:06:30;;;;;;;2.28;2.17;;;21.30;99.90;;;;;;5091488;28;20209;-78
2022/10/16 09:08:58;;;;;;;2.22;2.13;;;21.90;99.90;;;;;;5086699;28;20229;-77
2022/10/16 09:11:34;;;;;;;3.33;2.40;;;22.80;99.90;;;;;;5087946;28;20633;-78
2022/10/16 09:14:18;;;;;;;2.53;2.40;;;24.00;99.90;;;;;;5085701;28;20198;-78
2022/10/16 09:17:01;;;;;;;3.53;2.20;;;25.60;99.90;;;;;;5093962;28;20182;-75
2022/10/16 09:19:46;;;;;;;4.25;2.00;;;26.80;99.90;;;;;;5087425;28;20174;-75
2022/10/16 09:22:16;;;;;;;2.05;1.95;;;28.40;99.90;;;;;;5090668;28;20282;-75
2022/10/16 09:24:42;;;;;;;2.00;1.90;;;30.00;96.70;;;;;;5084516;28;20215;-75
2022/10/16 09:27:14;;;;;;;2.00;1.90;;;31.20;92.80;;;;;;5080118;28;20174;-76
2022/10/16 09:29:40;;;;;;;2.72;1.63;;;31.80;90.90;;;;;;5090813;28;20250;-76
2022/10/16 09:32:12;;;;;;;2.47;2.15;;;32.60;85.10;;;;;;5092170;28;20212;-75
2022/10/16 09:34:43;;;;;;;1.70;1.60;;;32.90;80.20;;;;;;5088104;28;20197;-75
2022/10/16 09:37:12;;;;;;;2.75;2.30;;;33.70;75.20;;;;;;5088684;28;20189;-75
2022/10/16 09:39:52;;;;;;;2.97;2.10;;;33.70;72.60;;;;;;5086990;28;20217;-75
2022/10/16 09:42:43;;;;;;;3.00;2.17;;;34.30;70.30;;;;;;5089138;28;20242;-75
2022/10/16 09:45:22;;;;;;;3.10;1.75;;;34.80;68.90;;;;;;5095758;28;20231;-75
2022/10/16 09:47:48;;;;;;;1.90;1.80;;;35.70;64.80;;;;;;5086983;28;20174;-76
2022/10/16 09:50:27;;;;;;;2.20;2.08;;;36.20;63.00;;;;;;5087654;28;20178;-75
2022/10/16 09:53:13;;;;;;;4.72;1.77;;;36.40;62.60;;;;;;5090418;28;20213;-75
2022/10/16 09:55:53;;;;;;;1.70;1.70;;;36.60;61.10;;;;;;5089795;28;20205;-76
2022/10/16 09:58:23;;;;;;;2.25;1.95;;;36.70;59.30;;;;;;5090062;28;20243;-76
2022/10/16 10:00:51;;;;;;;2.00;1.90;;;36.30;59.70;;;;;;5090654;28;20251;-75
2022/10/16 10:03:39;;;;;;;4.35;2.08;;;36.00;60.30;;;;;;5088094;28;20178;-75
2022/10/16 10:06:22;;;;;;;2.50;2.30;;;36.10;59.70;;;;;;5090857;28;20303;-75
2022/10/16 10:08:54;;;;;;;2.00;1.90;;;36.10;59.60;;;;;;5084625;28;20177;-75
2022/10/16 10:11:40;;;;;;;4.15;2.17;;;36.50;58.80;;;;;;5085788;28;20182;-75
2022/10/16 10:14:15;;;;;;;2.15;1.95;;;36.70;57.60;;;;;;5083841;28;20202;-75
2022/10/16 10:16:40;;;;;;;3.45;1.95;;;36.10;58.40;;;;;;5089202;28;20659;-75
2022/10/16 10:19:17;;;;;;;2.88;1.90;;;36.30;58.40;;;;;;5086085;28;20219;-74
2022/10/16 10:21:43;;;;;;;1.92;1.80;;;36.30;58.30;;;;;;5088667;28;20223;-74
2022/10/16 10:24:14;;;;;;;3.08;1.77;;;36.50;58.00;;;;;;5080246;28;20277;-73
2022/10/16 10:27:03;;;;;;;3.38;1.80;;;37.20;57.20;;;;;;5083737;28;20186;-74
2022/10/16 10:29:35;;;;;;;2.30;2.10;;;37.20;56.20;;;;;;5082085;28;20189;-74
2022/10/16 10:32:45;;;;;;;3.15;2.08;;;37.30;55.90;;;;;;5086704;28;20179;-73
2022/10/16 10:35:20;;;;;;;2.47;1.80;;;36.70;55.60;;;;;;5090100;28;20197;-74
2022/10/16 10:37:49;;;;;;;2.40;1.52;;;35.90;58.10;;;;;;5083926;28;20178;-74
2022/10/16 10:40:30;;;;;;;2.67;1.70;;;36.30;57.70;;;;;;5084536;28;20182;-74
2022/10/16 10:43:04;;;;;;;4.00;1.92;;;37.30;55.90;;;;;;5090324;28;20234;-74
2022/10/16 10:45:38;;;;;;;3.00;2.08;;;38.10;54.70;;;;;;5087879;28;20209;-74
2022/10/16 10:48:03;;;;;;;2.88;2.15;;;37.70;54.30;;;;;;5084361;28;20199;-74
2022/10/16 10:50:53;;;;;;;1.67;1.50;;;36.10;56.70;;;;;;5083056;28;20545;-74
2022/10/16 10:53:31;;;;;;;2.50;1.80;;;34.40;59.60;;;;;;5086974;28;20649;-74
2022/10/16 10:56:02;;;;;;;1.80;1.70;;;33.00;62.80;;;;;;5088546;28;20182;-74
2022/10/16 10:58:36;;;;;;;2.40;1.98;;;32.20;65.30;;;;;;5081302;28;20261;-73
2022/10/16 11:01:22;;;;;;;2.10;1.70;;;31.10;67.10;;;;;;5085821;28;20185;-73
2022/10/16 11:04:22;;;;;;;2.70;2.03;;;30.10;70.20;;;;;;5082045;28;20252;-74
2022/10/16 11:06:52;;;;;;;3.88;1.70;;;29.70;73.40;;;;;;5087934;28;20247;-74
2022/10/16 11:09:20;;;;;;;2.20;2.10;;;29.50;75.30;;;;;;5087344;28;20278;-74
2022/10/16 11:12:06;;;;;;;2.00;1.58;;;29.80;74.50;;;;;;5081411;28;20185;-74
2022/10/16 11:14:42;;;;;;;1.95;1.85;;;30.10;74.40;;;;;;5081389;28;20692;-74
2022/10/16 11:17:10;;;;;;;4.07;1.95;;;30.20;74.20;;;;;;5090637;28;20310;-74
2022/10/16 11:19:52;;;;;;;1.73;1.63;;;30.10;74.10;;;;;;5090254;28;20258;-74
2022/10/16 11:22:30;;;;;;;2.65;1.70;;;30.00;74.50;;;;;;5083484;28;20558;-74
2022/10/16 11:25:06;;;;;;;1.92;1.80;;;30.00;75.40;;;;;;5084738;28;20213;-74
2022/10/16 11:27:47;;;;;;;1.83;1.77;;;31.20;73.10;;;;;;5088350;28;20201;-74
2022/10/16 11:30:24;;;;;;;1.95;1.75;;;33.40;68.00;;;;;;5084803;28;20675;-74
2022/10/16 11:32:59;;;;;;;1.83;1.73;;;36.10;62.30;;;;;;5088152;28;20518;-74
2022/10/16 11:35:49;;;;;;;1.83;1.73;;;37.10;58.40;;;;;;5085750;28;20231;-74
2022/10/16 11:38:20;;;;;;;1.60;1.50;;;36.70;58.00;;;;;;5081115;28;20182;-74
2022/10/16 11:40:50;;;;;;;1.70;1.60;;;37.70;56.60;;;;;;5077327;28;20232;-74
2022/10/16 11:43:28;;;;;;;1.52;1.52;;;39.20;55.00;;;;;;5079128;28;20697;-74
2022/10/16 11:46:01;;;;;;;1.58;1.50;;;40.80;53.10;;;;;;5087842;28;20266;-74
2022/10/16 11:49:06;;;;;;;2.33;1.42;;;42.50;49.70;;;;;;5084408;28;20199;-74
2022/10/16 11:51:51;;;;;;;1.42;1.33;;;43.80;47.20;;;;;;5076044;28;20190;-74
2022/10/16 11:54:36;;;;;;;2.05;1.42;;;44.10;46.40;;;;;;5078841;28;20201;-74
2022/10/16 11:57:12;;;;;;;1.45;1.40;;;44.00;45.40;;;;;;5088434;28;20182;-74
2022/10/16 11:59:46;;;;;;;3.38;1.92;;;43.30;45.90;;;;;;5081969;28;20182;-74
2022/10/16 12:02:40;;;;;;;1.30;1.20;;;42.60;47.10;;;;;;5085218;28;20168;-74
2022/10/16 12:05:06;;;;;;;3.10;1.50;;;42.40;47.20;;;;;;5083071;28;20205;-74
2022/10/16 12:07:38;;;;;;;2.40;1.65;;;42.70;46.90;;;;;;5084810;28;20512;-74
2022/10/16 12:10:26;;;;;;;1.58;1.48;;;43.10;45.80;;;;;;5083544;28;20269;-74
2022/10/16 12:12:51;;;;;;;1.77;1.25;;;42.90;46.40;;;;;;5079890;28;20187;-74
2022/10/16 12:15:30;;;;;;;1.60;1.50;;;43.10;45.70;;;;;;5079914;28;20210;-74
2022/10/16 12:17:56;;;;;;;1.20;1.20;;;43.40;45.70;;;;;;5087205;28;20266;-74
2022/10/16 12:20:30;;;;;;;1.23;1.23;;;43.30;45.20;;;;;;5087019;28;20182;-74
2022/10/16 12:22:57;;;;;;;1.88;1.40;;;42.80;45.80;;;;;;5083749;28;20173;-74
2022/10/16 12:25:38;;;;;;;1.92;1.83;;;41.50;47.10;;;;;;5081299;28;20197;-74
2022/10/16 12:28:19;;;;;;;1.75;1.65;;;40.80;48.00;;;;;;5085386;28;20241;-74
2022/10/16 12:31:01;;;;;;;1.83;1.50;;;39.90;49.00;;;;;;5084069;28;20185;-74
2022/10/16 12:33:30;;;;;;;1.42;1.42;;;39.50;49.70;;;;;;5088319;28;20557;-74
2022/10/16 12:35:59;;;;;;;1.63;1.42;;;39.10;50.10;;;;;;5088586;28;20235;-74
2022/10/16 12:38:49;;;;;;;2.05;1.60;;;38.30;51.60;;;;;;5088593;28;20185;-74
2022/10/16 12:41:26;;;;;;;2.35;1.50;;;37.10;53.00;;;;;;5088994;28;20208;-74
2022/10/16 12:43:52;;;;;;;2.45;1.70;;;35.20;56.00;;;;;;5087119;28;20233;-74
2022/10/16 12:46:18;;;;;;;3.33;1.45;;;33.90;58.50;;;;;;5089607;28;20237;-74
2022/10/16 12:48:45;;;;;;;3.70;1.52;;;33.00;60.70;;;;;;5086414;28;20185;-74
2022/10/16 12:51:32;;;;;;;4.30;1.70;;;32.20;61.90;;;;;;5081505;28;20188;-73
2022/10/16 12:54:11;;;;;;;2.65;1.45;;;31.80;64.10;;;;;;5089145;28;20582;-74
2022/10/16 12:56:58;;;;;;;1.90;1.65;;;31.30;66.30;;;;;;5090564;28;20614;-73
2022/10/16 12:59:41;;;;;;;1.80;1.67;;;31.30;66.70;;;;;;5090699;28;20186;-73
2022/10/16 13:02:29;;;;;;;7.20;2.97;;;31.10;66.70;;;;;;5085984;28;20285;-74
2022/10/16 13:05:04;;;;;;;6.80;1.70;;;30.90;67.90;;;;;;5089419;28;20336;-73
2022/10/16 13:07:44;;;;;;;2.00;1.90;;;30.70;68.50;;;;;;5089740;28;20652;-73
2022/10/16 13:10:26;;;;;;;3.78;2.35;;;30.50;69.40;;;;;;5090274;28;20186;-73
2022/10/16 13:13:13;;;;;;;1.67;1.58;;;30.20;71.60;;;;;;5087711;28;20196;-73
2022/10/16 13:15:45;;;;;;;2.30;1.65;;;29.80;71.70;;;;;;5086277;28;20669;-73